
<gpx xmlns="http://www.topografix.com/GPX/1/1" xmlns:gpxx="http://www.garmin.com/xmlschemas/GpxExtensions/v3" xmlns:xsi="http://www.w3.org/2001/XMLSchema-instance" version="1.1" creator="Adze - https://getadze.com/" xsi:schemaLocation="http://www.topografix.com/GPX/1/1 http://www.topografix.com/GPX/1/1/gpx.xsd http://www.garmin.com/xmlschemas/GpxExtensions/v3 http://www8.garmin.com/xmlschemas/GpxExtensionsv3.xsd">
    <metadata>
        <name>Untitled Document</name>
        <link href="http://www.garmin.com"></link>
        <time>2018-03-06T04:38:28.882Z</time>
    </metadata>
    <wpt lon="101.191029" lat="14.706620">
        <name>Rai Arunwit Resort</name>
    </wpt>
    <trk>
        <name>November 2006 - Sunday</name>
        <extensions>
            <gpxx:TrackExtension>
                <gpxx:DisplayColor>DarkGray</gpxx:DisplayColor>
            </gpxx:TrackExtension>
        </extensions>
        <trkseg>
            <trkpt lon="101.191099" lat="14.706573">
                <ele>212.108032</ele>
                <time>2006-11-26T03:35:54Z</time>
            </trkpt>
            <trkpt lon="101.191099" lat="14.706423">
                <ele>194.323730</ele>
                <time>2006-11-26T03:36:14Z</time>
            </trkpt>
            <trkpt lon="101.190970" lat="14.706080">
                <ele>193.843018</ele>
                <time>2006-11-26T03:36:27Z</time>
            </trkpt>
            <trkpt lon="101.190948" lat="14.706016">
                <ele>193.843018</ele>
                <time>2006-11-26T03:36:29Z</time>
            </trkpt>
            <trkpt lon="101.191034" lat="14.705586">
                <ele>194.804321</ele>
                <time>2006-11-26T03:36:43Z</time>
            </trkpt>
            <trkpt lon="101.191335" lat="14.705329">
                <ele>194.804321</ele>
                <time>2006-11-26T03:36:53Z</time>
            </trkpt>
            <trkpt lon="101.192000" lat="14.704750">
                <ele>187.113770</ele>
                <time>2006-11-26T03:37:11Z</time>
            </trkpt>
            <trkpt lon="101.192923" lat="14.703977">
                <ele>181.345825</ele>
                <time>2006-11-26T03:37:33Z</time>
            </trkpt>
            <trkpt lon="101.193759" lat="14.703355">
                <ele>180.865234</ele>
                <time>2006-11-26T03:37:52Z</time>
            </trkpt>
            <trkpt lon="101.194489" lat="14.702861">
                <ele>180.865234</ele>
                <time>2006-11-26T03:38:08Z</time>
            </trkpt>
            <trkpt lon="101.194618" lat="14.702582">
                <ele>183.749023</ele>
                <time>2006-11-26T03:38:14Z</time>
            </trkpt>
            <trkpt lon="101.194725" lat="14.701402">
                <ele>191.920288</ele>
                <time>2006-11-26T03:38:35Z</time>
            </trkpt>
            <trkpt lon="101.194789" lat="14.700866">
                <ele>194.323730</ele>
                <time>2006-11-26T03:38:44Z</time>
            </trkpt>
            <trkpt lon="101.195369" lat="14.699943">
                <ele>192.881714</ele>
                <time>2006-11-26T03:39:02Z</time>
            </trkpt>
            <trkpt lon="101.196012" lat="14.698977">
                <ele>190.478394</ele>
                <time>2006-11-26T03:39:22Z</time>
            </trkpt>
            <trkpt lon="101.196055" lat="14.698420">
                <ele>192.401123</ele>
                <time>2006-11-26T03:39:31Z</time>
            </trkpt>
            <trkpt lon="101.195648" lat="14.697068">
                <ele>194.804321</ele>
                <time>2006-11-26T03:39:54Z</time>
            </trkpt>
            <trkpt lon="101.195433" lat="14.695909">
                <ele>196.726929</ele>
                <time>2006-11-26T03:40:14Z</time>
            </trkpt>
            <trkpt lon="101.195433" lat="14.695866">
                <ele>197.207520</ele>
                <time>2006-11-26T03:40:15Z</time>
            </trkpt>
            <trkpt lon="101.195562" lat="14.695351">
                <ele>195.765625</ele>
                <time>2006-11-26T03:40:24Z</time>
            </trkpt>
            <trkpt lon="101.195927" lat="14.694686">
                <ele>194.804321</ele>
                <time>2006-11-26T03:40:37Z</time>
            </trkpt>
            <trkpt lon="101.196163" lat="14.694407">
                <ele>194.804321</ele>
                <time>2006-11-26T03:40:43Z</time>
            </trkpt>
            <trkpt lon="101.196742" lat="14.693999">
                <ele>192.881714</ele>
                <time>2006-11-26T03:40:55Z</time>
            </trkpt>
            <trkpt lon="101.197407" lat="14.693506">
                <ele>189.516968</ele>
                <time>2006-11-26T03:41:09Z</time>
            </trkpt>
            <trkpt lon="101.197515" lat="14.693334">
                <ele>189.036377</ele>
                <time>2006-11-26T03:41:12Z</time>
            </trkpt>
            <trkpt lon="101.197600" lat="14.692798">
                <ele>190.478394</ele>
                <time>2006-11-26T03:41:21Z</time>
            </trkpt>
            <trkpt lon="101.197665" lat="14.691703">
                <ele>194.323730</ele>
                <time>2006-11-26T03:41:38Z</time>
            </trkpt>
            <trkpt lon="101.197944" lat="14.690759">
                <ele>193.362305</ele>
                <time>2006-11-26T03:41:54Z</time>
            </trkpt>
            <trkpt lon="101.198609" lat="14.689665">
                <ele>191.920288</ele>
                <time>2006-11-26T03:42:16Z</time>
            </trkpt>
            <trkpt lon="101.198866" lat="14.689214">
                <ele>190.958984</ele>
                <time>2006-11-26T03:42:26Z</time>
            </trkpt>
            <trkpt lon="101.199102" lat="14.689214">
                <ele>189.997681</ele>
                <time>2006-11-26T03:42:33Z</time>
            </trkpt>
            <trkpt lon="101.199145" lat="14.689236">
                <ele>190.958984</ele>
                <time>2006-11-26T03:42:41Z</time>
            </trkpt>
            <trkpt lon="101.198909" lat="14.688935">
                <ele>192.401123</ele>
                <time>2006-11-26T03:42:55Z</time>
            </trkpt>
            <trkpt lon="101.198115" lat="14.688098">
                <ele>191.439575</ele>
                <time>2006-11-26T03:43:19Z</time>
            </trkpt>
            <trkpt lon="101.197278" lat="14.687240">
                <ele>190.958984</ele>
                <time>2006-11-26T03:43:42Z</time>
            </trkpt>
            <trkpt lon="101.196957" lat="14.686661">
                <ele>191.920288</ele>
                <time>2006-11-26T03:43:53Z</time>
            </trkpt>
            <trkpt lon="101.197107" lat="14.685867">
                <ele>194.323730</ele>
                <time>2006-11-26T03:44:07Z</time>
            </trkpt>
            <trkpt lon="101.197579" lat="14.684343">
                <ele>195.765625</ele>
                <time>2006-11-26T03:44:34Z</time>
            </trkpt>
            <trkpt lon="101.198158" lat="14.683356">
                <ele>195.284912</ele>
                <time>2006-11-26T03:44:51Z</time>
            </trkpt>
            <trkpt lon="101.198201" lat="14.683313">
                <ele>195.284912</ele>
                <time>2006-11-26T03:44:52Z</time>
            </trkpt>
            <trkpt lon="101.199081" lat="14.682755">
                <ele>194.804321</ele>
                <time>2006-11-26T03:45:07Z</time>
            </trkpt>
            <trkpt lon="101.200132" lat="14.682305">
                <ele>194.323730</ele>
                <time>2006-11-26T03:45:25Z</time>
            </trkpt>
            <trkpt lon="101.200948" lat="14.682219">
                <ele>193.843018</ele>
                <time>2006-11-26T03:45:39Z</time>
            </trkpt>
            <trkpt lon="101.201098" lat="14.682155">
                <ele>193.362305</ele>
                <time>2006-11-26T03:45:43Z</time>
            </trkpt>
            <trkpt lon="101.201205" lat="14.682133">
                <ele>193.843018</ele>
                <time>2006-11-26T03:45:47Z</time>
            </trkpt>
            <trkpt lon="101.201398" lat="14.682541">
                <ele>195.284912</ele>
                <time>2006-11-26T03:45:57Z</time>
            </trkpt>
            <trkpt lon="101.201591" lat="14.683356">
                <ele>195.284912</ele>
                <time>2006-11-26T03:46:14Z</time>
            </trkpt>
            <trkpt lon="101.201720" lat="14.683700">
                <ele>194.323730</ele>
                <time>2006-11-26T03:46:29Z</time>
            </trkpt>
            <trkpt lon="101.201763" lat="14.683743">
                <ele>200.091675</ele>
                <time>2006-11-26T03:46:46Z</time>
            </trkpt>
            <trkpt lon="101.201763" lat="14.683785">
                <ele>198.649536</ele>
                <time>2006-11-26T03:47:04Z</time>
            </trkpt>
            <trkpt lon="101.201763" lat="14.683764">
                <ele>194.323730</ele>
                <time>2006-11-26T03:47:35Z</time>
            </trkpt>
            <trkpt lon="101.201763" lat="14.683785">
                <ele>186.152466</ele>
                <time>2006-11-26T03:48:02Z</time>
            </trkpt>
            <trkpt lon="101.201763" lat="14.683807">
                <ele>175.577881</ele>
                <time>2006-11-26T03:49:11Z</time>
            </trkpt>
            <trkpt lon="101.201785" lat="14.683850">
                <ele>179.903809</ele>
                <time>2006-11-26T03:49:28Z</time>
            </trkpt>
            <trkpt lon="101.201806" lat="14.683893">
                <ele>179.903809</ele>
                <time>2006-11-26T03:49:47Z</time>
            </trkpt>
            <trkpt lon="101.201828" lat="14.683957">
                <ele>183.749023</ele>
                <time>2006-11-26T03:50:05Z</time>
            </trkpt>
            <trkpt lon="101.201913" lat="14.684000">
                <ele>185.191162</ele>
                <time>2006-11-26T03:50:19Z</time>
            </trkpt>
            <trkpt lon="101.201913" lat="14.684000">
                <ele>188.555786</ele>
                <time>2006-11-26T03:50:24Z</time>
            </trkpt>
            <trkpt lon="101.202128" lat="14.683936">
                <ele>188.075073</ele>
                <time>2006-11-26T03:50:41Z</time>
            </trkpt>
            <trkpt lon="101.202321" lat="14.684043">
                <ele>185.671753</ele>
                <time>2006-11-26T03:51:07Z</time>
            </trkpt>
            <trkpt lon="101.202343" lat="14.684086">
                <ele>181.826416</ele>
                <time>2006-11-26T03:52:09Z</time>
            </trkpt>
            <trkpt lon="101.202278" lat="14.684064">
                <ele>181.345825</ele>
                <time>2006-11-26T03:53:03Z</time>
            </trkpt>
            <trkpt lon="101.202042" lat="14.684021">
                <ele>180.384521</ele>
                <time>2006-11-26T03:53:16Z</time>
            </trkpt>
            <trkpt lon="101.201870" lat="14.684107">
                <ele>182.307129</ele>
                <time>2006-11-26T03:53:33Z</time>
            </trkpt>
            <trkpt lon="101.201870" lat="14.684064">
                <ele>192.401123</ele>
                <time>2006-11-26T03:54:01Z</time>
            </trkpt>
            <trkpt lon="101.201870" lat="14.684000">
                <ele>191.920288</ele>
                <time>2006-11-26T03:54:18Z</time>
            </trkpt>
            <trkpt lon="101.201849" lat="14.683979">
                <ele>190.478394</ele>
                <time>2006-11-26T03:54:32Z</time>
            </trkpt>
            <trkpt lon="101.201828" lat="14.683936">
                <ele>189.516968</ele>
                <time>2006-11-26T03:54:47Z</time>
            </trkpt>
            <trkpt lon="101.201785" lat="14.683871">
                <ele>189.516968</ele>
                <time>2006-11-26T03:55:02Z</time>
            </trkpt>
            <trkpt lon="101.201763" lat="14.683807">
                <ele>188.075073</ele>
                <time>2006-11-26T03:55:16Z</time>
            </trkpt>
            <trkpt lon="101.201720" lat="14.683700">
                <ele>191.439575</ele>
                <time>2006-11-26T03:55:36Z</time>
            </trkpt>
            <trkpt lon="101.201677" lat="14.683549">
                <ele>192.401123</ele>
                <time>2006-11-26T03:55:59Z</time>
            </trkpt>
            <trkpt lon="101.201656" lat="14.683506">
                <ele>193.362305</ele>
                <time>2006-11-26T03:56:15Z</time>
            </trkpt>
            <trkpt lon="101.201634" lat="14.683506">
                <ele>192.401123</ele>
                <time>2006-11-26T03:56:54Z</time>
            </trkpt>
            <trkpt lon="101.201634" lat="14.683506">
                <ele>194.323730</ele>
                <time>2006-11-26T03:57:33Z</time>
            </trkpt>
            <trkpt lon="101.201656" lat="14.683528">
                <ele>188.555786</ele>
                <time>2006-11-26T03:58:17Z</time>
            </trkpt>
            <trkpt lon="101.201699" lat="14.683528">
                <ele>192.401123</ele>
                <time>2006-11-26T03:58:39Z</time>
            </trkpt>
            <trkpt lon="101.201677" lat="14.683506">
                <ele>190.958984</ele>
                <time>2006-11-26T03:58:59Z</time>
            </trkpt>
            <trkpt lon="101.201613" lat="14.683528">
                <ele>195.765625</ele>
                <time>2006-11-26T04:00:01Z</time>
            </trkpt>
            <trkpt lon="101.201613" lat="14.683485">
                <ele>196.246338</ele>
                <time>2006-11-26T04:00:21Z</time>
            </trkpt>
            <trkpt lon="101.201613" lat="14.683485">
                <ele>195.284912</ele>
                <time>2006-11-26T04:01:17Z</time>
            </trkpt>
            <trkpt lon="101.201613" lat="14.683485">
                <ele>193.843018</ele>
                <time>2006-11-26T04:02:22Z</time>
            </trkpt>
            <trkpt lon="101.201634" lat="14.683549">
                <ele>193.362305</ele>
                <time>2006-11-26T04:02:39Z</time>
            </trkpt>
            <trkpt lon="101.201699" lat="14.683678">
                <ele>191.920288</ele>
                <time>2006-11-26T04:03:00Z</time>
            </trkpt>
            <trkpt lon="101.201720" lat="14.683721">
                <ele>191.920288</ele>
                <time>2006-11-26T04:03:18Z</time>
            </trkpt>
            <trkpt lon="101.201742" lat="14.683764">
                <ele>189.036377</ele>
                <time>2006-11-26T04:03:37Z</time>
            </trkpt>
            <trkpt lon="101.201785" lat="14.683807">
                <ele>187.113770</ele>
                <time>2006-11-26T04:04:08Z</time>
            </trkpt>
            <trkpt lon="101.201763" lat="14.683828">
                <ele>189.036377</ele>
                <time>2006-11-26T04:04:38Z</time>
            </trkpt>
            <trkpt lon="101.201785" lat="14.683850">
                <ele>188.075073</ele>
                <time>2006-11-26T04:04:54Z</time>
            </trkpt>
            <trkpt lon="101.201828" lat="14.683893">
                <ele>186.633179</ele>
                <time>2006-11-26T04:05:08Z</time>
            </trkpt>
            <trkpt lon="101.201849" lat="14.683979">
                <ele>187.594360</ele>
                <time>2006-11-26T04:05:23Z</time>
            </trkpt>
            <trkpt lon="101.201892" lat="14.684021">
                <ele>188.075073</ele>
                <time>2006-11-26T04:05:42Z</time>
            </trkpt>
            <trkpt lon="101.201913" lat="14.684021">
                <ele>184.229858</ele>
                <time>2006-11-26T04:06:02Z</time>
            </trkpt>
            <trkpt lon="101.202235" lat="14.683979">
                <ele>183.749023</ele>
                <time>2006-11-26T04:06:22Z</time>
            </trkpt>
            <trkpt lon="101.202750" lat="14.684000">
                <ele>187.113770</ele>
                <time>2006-11-26T04:06:45Z</time>
            </trkpt>
            <trkpt lon="101.203694" lat="14.684021">
                <ele>186.152466</ele>
                <time>2006-11-26T04:07:10Z</time>
            </trkpt>
            <trkpt lon="101.203952" lat="14.683957">
                <ele>186.633179</ele>
                <time>2006-11-26T04:07:16Z</time>
            </trkpt>
            <trkpt lon="101.204295" lat="14.683850">
                <ele>188.075073</ele>
                <time>2006-11-26T04:07:23Z</time>
            </trkpt>
            <trkpt lon="101.204445" lat="14.683871">
                <ele>188.555786</ele>
                <time>2006-11-26T04:07:27Z</time>
            </trkpt>
            <trkpt lon="101.204681" lat="14.683678">
                <ele>190.478394</ele>
                <time>2006-11-26T04:07:38Z</time>
            </trkpt>
            <trkpt lon="101.204960" lat="14.682906">
                <ele>188.075073</ele>
                <time>2006-11-26T04:07:59Z</time>
            </trkpt>
            <trkpt lon="101.204960" lat="14.682777">
                <ele>188.075073</ele>
                <time>2006-11-26T04:08:03Z</time>
            </trkpt>
            <trkpt lon="101.204681" lat="14.682391">
                <ele>189.036377</ele>
                <time>2006-11-26T04:08:18Z</time>
            </trkpt>
            <trkpt lon="101.204531" lat="14.682026">
                <ele>189.516968</ele>
                <time>2006-11-26T04:08:32Z</time>
            </trkpt>
            <trkpt lon="101.204381" lat="14.681597">
                <ele>190.478394</ele>
                <time>2006-11-26T04:08:50Z</time>
            </trkpt>
            <trkpt lon="101.204231" lat="14.681489">
                <ele>190.478394</ele>
                <time>2006-11-26T04:08:57Z</time>
            </trkpt>
            <trkpt lon="101.204252" lat="14.681447">
                <ele>189.997681</ele>
                <time>2006-11-26T04:09:01Z</time>
            </trkpt>
            <trkpt lon="101.204231" lat="14.681425">
                <ele>189.516968</ele>
                <time>2006-11-26T04:09:03Z</time>
            </trkpt>
            <trkpt lon="101.204252" lat="14.681339">
                <ele>189.997681</ele>
                <time>2006-11-26T04:09:10Z</time>
            </trkpt>
            <trkpt lon="101.204574" lat="14.681211">
                <ele>190.958984</ele>
                <time>2006-11-26T04:09:28Z</time>
            </trkpt>
            <trkpt lon="101.204617" lat="14.681232">
                <ele>190.478394</ele>
                <time>2006-11-26T04:09:31Z</time>
            </trkpt>
            <trkpt lon="101.204638" lat="14.681296">
                <ele>190.478394</ele>
                <time>2006-11-26T04:09:34Z</time>
            </trkpt>
            <trkpt lon="101.204789" lat="14.681339">
                <ele>190.958984</ele>
                <time>2006-11-26T04:09:42Z</time>
            </trkpt>
            <trkpt lon="101.204810" lat="14.681275">
                <ele>190.478394</ele>
                <time>2006-11-26T04:09:48Z</time>
            </trkpt>
            <trkpt lon="101.204574" lat="14.680867">
                <ele>187.113770</ele>
                <time>2006-11-26T04:10:07Z</time>
            </trkpt>
            <trkpt lon="101.204467" lat="14.680610">
                <ele>187.113770</ele>
                <time>2006-11-26T04:10:18Z</time>
            </trkpt>
            <trkpt lon="101.204510" lat="14.680502">
                <ele>187.594360</ele>
                <time>2006-11-26T04:10:24Z</time>
            </trkpt>
            <trkpt lon="101.204960" lat="14.680288">
                <ele>189.516968</ele>
                <time>2006-11-26T04:10:40Z</time>
            </trkpt>
            <trkpt lon="101.205518" lat="14.680009">
                <ele>189.516968</ele>
                <time>2006-11-26T04:10:59Z</time>
            </trkpt>
            <trkpt lon="101.205947" lat="14.679816">
                <ele>189.997681</ele>
                <time>2006-11-26T04:11:15Z</time>
            </trkpt>
            <trkpt lon="101.205990" lat="14.679751">
                <ele>190.478394</ele>
                <time>2006-11-26T04:11:18Z</time>
            </trkpt>
            <trkpt lon="101.205776" lat="14.679193">
                <ele>189.516968</ele>
                <time>2006-11-26T04:11:38Z</time>
            </trkpt>
            <trkpt lon="101.205604" lat="14.678743">
                <ele>187.594360</ele>
                <time>2006-11-26T04:11:55Z</time>
            </trkpt>
            <trkpt lon="101.205432" lat="14.678378">
                <ele>189.036377</ele>
                <time>2006-11-26T04:12:10Z</time>
            </trkpt>
            <trkpt lon="101.205389" lat="14.678228">
                <ele>189.516968</ele>
                <time>2006-11-26T04:12:15Z</time>
            </trkpt>
            <trkpt lon="101.205432" lat="14.677777">
                <ele>191.920288</ele>
                <time>2006-11-26T04:12:30Z</time>
            </trkpt>
            <trkpt lon="101.205540" lat="14.677284">
                <ele>193.843018</ele>
                <time>2006-11-26T04:12:47Z</time>
            </trkpt>
            <trkpt lon="101.205561" lat="14.676876">
                <ele>194.323730</ele>
                <time>2006-11-26T04:13:00Z</time>
            </trkpt>
            <trkpt lon="101.205518" lat="14.676511">
                <ele>192.401123</ele>
                <time>2006-11-26T04:13:15Z</time>
            </trkpt>
            <trkpt lon="101.205540" lat="14.676490">
                <ele>191.920288</ele>
                <time>2006-11-26T04:13:17Z</time>
            </trkpt>
            <trkpt lon="101.205561" lat="14.676383">
                <ele>192.401123</ele>
                <time>2006-11-26T04:13:25Z</time>
            </trkpt>
            <trkpt lon="101.205518" lat="14.676275">
                <ele>193.843018</ele>
                <time>2006-11-26T04:13:31Z</time>
            </trkpt>
            <trkpt lon="101.205411" lat="14.675996">
                <ele>194.804321</ele>
                <time>2006-11-26T04:13:48Z</time>
            </trkpt>
            <trkpt lon="101.205389" lat="14.675610">
                <ele>195.765625</ele>
                <time>2006-11-26T04:14:03Z</time>
            </trkpt>
            <trkpt lon="101.205475" lat="14.675481">
                <ele>197.207520</ele>
                <time>2006-11-26T04:14:11Z</time>
            </trkpt>
            <trkpt lon="101.205475" lat="14.675074">
                <ele>197.688232</ele>
                <time>2006-11-26T04:14:30Z</time>
            </trkpt>
            <trkpt lon="101.205411" lat="14.674602">
                <ele>199.610840</ele>
                <time>2006-11-26T04:14:52Z</time>
            </trkpt>
            <trkpt lon="101.205304" lat="14.674065">
                <ele>199.610840</ele>
                <time>2006-11-26T04:15:13Z</time>
            </trkpt>
            <trkpt lon="101.205261" lat="14.673743">
                <ele>200.572266</ele>
                <time>2006-11-26T04:15:29Z</time>
            </trkpt>
            <trkpt lon="101.205196" lat="14.673378">
                <ele>200.091675</ele>
                <time>2006-11-26T04:15:47Z</time>
            </trkpt>
            <trkpt lon="101.205153" lat="14.672949">
                <ele>200.572266</ele>
                <time>2006-11-26T04:16:07Z</time>
            </trkpt>
            <trkpt lon="101.205111" lat="14.672563">
                <ele>200.091675</ele>
                <time>2006-11-26T04:16:25Z</time>
            </trkpt>
            <trkpt lon="101.205089" lat="14.672477">
                <ele>199.610840</ele>
                <time>2006-11-26T04:16:29Z</time>
            </trkpt>
            <trkpt lon="101.204789" lat="14.672520">
                <ele>198.649536</ele>
                <time>2006-11-26T04:16:41Z</time>
            </trkpt>
            <trkpt lon="101.204746" lat="14.672499">
                <ele>198.649536</ele>
                <time>2006-11-26T04:16:54Z</time>
            </trkpt>
            <trkpt lon="101.204724" lat="14.672477">
                <ele>201.533569</ele>
                <time>2006-11-26T04:17:20Z</time>
            </trkpt>
            <trkpt lon="101.204724" lat="14.672434">
                <ele>202.975464</ele>
                <time>2006-11-26T04:17:48Z</time>
            </trkpt>
            <trkpt lon="101.204767" lat="14.672348">
                <ele>204.417480</ele>
                <time>2006-11-26T04:18:08Z</time>
            </trkpt>
            <trkpt lon="101.204746" lat="14.672263">
                <ele>203.936890</ele>
                <time>2006-11-26T04:18:25Z</time>
            </trkpt>
            <trkpt lon="101.204746" lat="14.672263">
                <ele>204.898071</ele>
                <time>2006-11-26T04:18:30Z</time>
            </trkpt>
            <trkpt lon="101.204424" lat="14.671919">
                <ele>202.494873</ele>
                <time>2006-11-26T04:18:58Z</time>
            </trkpt>
            <trkpt lon="101.204209" lat="14.671404">
                <ele>201.533569</ele>
                <time>2006-11-26T04:19:15Z</time>
            </trkpt>
            <trkpt lon="101.203845" lat="14.670696">
                <ele>201.052856</ele>
                <time>2006-11-26T04:19:36Z</time>
            </trkpt>
            <trkpt lon="101.203544" lat="14.670053">
                <ele>199.610840</ele>
                <time>2006-11-26T04:19:55Z</time>
            </trkpt>
            <trkpt lon="101.203437" lat="14.669816">
                <ele>199.610840</ele>
                <time>2006-11-26T04:20:08Z</time>
            </trkpt>
            <trkpt lon="101.203351" lat="14.669580">
                <ele>199.610840</ele>
                <time>2006-11-26T04:20:42Z</time>
            </trkpt>
            <trkpt lon="101.203673" lat="14.669409">
                <ele>201.052856</ele>
                <time>2006-11-26T04:20:53Z</time>
            </trkpt>
            <trkpt lon="101.204381" lat="14.669108">
                <ele>201.052856</ele>
                <time>2006-11-26T04:21:13Z</time>
            </trkpt>
            <trkpt lon="101.205389" lat="14.668829">
                <ele>203.456177</ele>
                <time>2006-11-26T04:21:40Z</time>
            </trkpt>
            <trkpt lon="101.206055" lat="14.668658">
                <ele>203.936890</ele>
                <time>2006-11-26T04:21:57Z</time>
            </trkpt>
            <trkpt lon="101.206098" lat="14.668529">
                <ele>204.417480</ele>
                <time>2006-11-26T04:22:01Z</time>
            </trkpt>
            <trkpt lon="101.205990" lat="14.668357">
                <ele>204.417480</ele>
                <time>2006-11-26T04:22:06Z</time>
            </trkpt>
            <trkpt lon="101.205690" lat="14.667714">
                <ele>207.301392</ele>
                <time>2006-11-26T04:22:24Z</time>
            </trkpt>
            <trkpt lon="101.205454" lat="14.667435">
                <ele>207.782104</ele>
                <time>2006-11-26T04:22:35Z</time>
            </trkpt>
            <trkpt lon="101.205347" lat="14.667199">
                <ele>208.262817</ele>
                <time>2006-11-26T04:22:41Z</time>
            </trkpt>
            <trkpt lon="101.205325" lat="14.667027">
                <ele>208.262817</ele>
                <time>2006-11-26T04:22:45Z</time>
            </trkpt>
            <trkpt lon="101.205261" lat="14.665997">
                <ele>207.782104</ele>
                <time>2006-11-26T04:23:08Z</time>
            </trkpt>
            <trkpt lon="101.205218" lat="14.665825">
                <ele>206.340088</ele>
                <time>2006-11-26T04:23:12Z</time>
            </trkpt>
            <trkpt lon="101.204445" lat="14.664817">
                <ele>203.456177</ele>
                <time>2006-11-26T04:23:38Z</time>
            </trkpt>
            <trkpt lon="101.204360" lat="14.664688">
                <ele>203.936890</ele>
                <time>2006-11-26T04:23:41Z</time>
            </trkpt>
            <trkpt lon="101.204145" lat="14.663723">
                <ele>203.456177</ele>
                <time>2006-11-26T04:24:00Z</time>
            </trkpt>
            <trkpt lon="101.204059" lat="14.662542">
                <ele>204.417480</ele>
                <time>2006-11-26T04:24:22Z</time>
            </trkpt>
            <trkpt lon="101.203866" lat="14.661620">
                <ele>203.456177</ele>
                <time>2006-11-26T04:24:41Z</time>
            </trkpt>
            <trkpt lon="101.203330" lat="14.661448">
                <ele>202.975464</ele>
                <time>2006-11-26T04:24:47Z</time>
            </trkpt>
            <trkpt lon="101.202772" lat="14.661491">
                <ele>203.936890</ele>
                <time>2006-11-26T04:24:53Z</time>
            </trkpt>
            <trkpt lon="101.202621" lat="14.661491">
                <ele>203.936890</ele>
                <time>2006-11-26T04:24:56Z</time>
            </trkpt>
            <trkpt lon="101.202428" lat="14.661319">
                <ele>207.301392</ele>
                <time>2006-11-26T04:25:08Z</time>
            </trkpt>
            <trkpt lon="101.202385" lat="14.661212">
                <ele>208.743408</ele>
                <time>2006-11-26T04:25:17Z</time>
            </trkpt>
            <trkpt lon="101.202214" lat="14.660847">
                <ele>207.301392</ele>
                <time>2006-11-26T04:25:37Z</time>
            </trkpt>
            <trkpt lon="101.202021" lat="14.660525">
                <ele>208.262817</ele>
                <time>2006-11-26T04:25:54Z</time>
            </trkpt>
            <trkpt lon="101.201978" lat="14.660418">
                <ele>209.224121</ele>
                <time>2006-11-26T04:26:10Z</time>
            </trkpt>
            <trkpt lon="101.201978" lat="14.660397">
                <ele>208.262817</ele>
                <time>2006-11-26T04:26:15Z</time>
            </trkpt>
            <trkpt lon="101.201720" lat="14.660118">
                <ele>206.340088</ele>
                <time>2006-11-26T04:26:27Z</time>
            </trkpt>
            <trkpt lon="101.201613" lat="14.660032">
                <ele>206.340088</ele>
                <time>2006-11-26T04:26:30Z</time>
            </trkpt>
            <trkpt lon="101.201484" lat="14.659903">
                <ele>205.859497</ele>
                <time>2006-11-26T04:26:34Z</time>
            </trkpt>
            <trkpt lon="101.201055" lat="14.659624">
                <ele>204.417480</ele>
                <time>2006-11-26T04:26:44Z</time>
            </trkpt>
            <trkpt lon="101.200905" lat="14.659474">
                <ele>203.936890</ele>
                <time>2006-11-26T04:26:48Z</time>
            </trkpt>
            <trkpt lon="101.200604" lat="14.659302">
                <ele>203.456177</ele>
                <time>2006-11-26T04:26:58Z</time>
            </trkpt>
            <trkpt lon="101.200519" lat="14.659388">
                <ele>202.975464</ele>
                <time>2006-11-26T04:27:03Z</time>
            </trkpt>
            <trkpt lon="101.200175" lat="14.659839">
                <ele>201.533569</ele>
                <time>2006-11-26T04:27:15Z</time>
            </trkpt>
            <trkpt lon="101.199853" lat="14.660182">
                <ele>200.572266</ele>
                <time>2006-11-26T04:27:24Z</time>
            </trkpt>
            <trkpt lon="101.199489" lat="14.660590">
                <ele>199.610840</ele>
                <time>2006-11-26T04:27:36Z</time>
            </trkpt>
            <trkpt lon="101.199467" lat="14.660633">
                <ele>200.091675</ele>
                <time>2006-11-26T04:27:38Z</time>
            </trkpt>
            <trkpt lon="101.199596" lat="14.660504">
                <ele>200.572266</ele>
                <time>2006-11-26T04:27:45Z</time>
            </trkpt>
            <trkpt lon="101.200089" lat="14.659882">
                <ele>201.052856</ele>
                <time>2006-11-26T04:28:05Z</time>
            </trkpt>
            <trkpt lon="101.200562" lat="14.659259">
                <ele>201.052856</ele>
                <time>2006-11-26T04:28:22Z</time>
            </trkpt>
            <trkpt lon="101.201098" lat="14.658294">
                <ele>203.936890</ele>
                <time>2006-11-26T04:28:43Z</time>
            </trkpt>
            <trkpt lon="101.201398" lat="14.657457">
                <ele>204.898071</ele>
                <time>2006-11-26T04:29:00Z</time>
            </trkpt>
            <trkpt lon="101.201506" lat="14.656963">
                <ele>204.898071</ele>
                <time>2006-11-26T04:29:13Z</time>
            </trkpt>
            <trkpt lon="101.201677" lat="14.656405">
                <ele>205.378784</ele>
                <time>2006-11-26T04:29:28Z</time>
            </trkpt>
            <trkpt lon="101.201913" lat="14.655483">
                <ele>207.782104</ele>
                <time>2006-11-26T04:29:49Z</time>
            </trkpt>
            <trkpt lon="101.201892" lat="14.654517">
                <ele>208.743408</ele>
                <time>2006-11-26T04:30:12Z</time>
            </trkpt>
            <trkpt lon="101.201892" lat="14.654474">
                <ele>209.224121</ele>
                <time>2006-11-26T04:30:13Z</time>
            </trkpt>
            <trkpt lon="101.201463" lat="14.653294">
                <ele>207.301392</ele>
                <time>2006-11-26T04:30:35Z</time>
            </trkpt>
            <trkpt lon="101.201291" lat="14.652715">
                <ele>208.262817</ele>
                <time>2006-11-26T04:30:47Z</time>
            </trkpt>
            <trkpt lon="101.201506" lat="14.652586">
                <ele>208.743408</ele>
                <time>2006-11-26T04:30:55Z</time>
            </trkpt>
            <trkpt lon="101.202171" lat="14.652436">
                <ele>209.224121</ele>
                <time>2006-11-26T04:31:07Z</time>
            </trkpt>
            <trkpt lon="101.202257" lat="14.652243">
                <ele>211.146729</ele>
                <time>2006-11-26T04:31:14Z</time>
            </trkpt>
            <trkpt lon="101.202257" lat="14.652286">
                <ele>211.627441</ele>
                <time>2006-11-26T04:31:16Z</time>
            </trkpt>
            <trkpt lon="101.202321" lat="14.652393">
                <ele>212.108032</ele>
                <time>2006-11-26T04:31:21Z</time>
            </trkpt>
            <trkpt lon="101.202536" lat="14.652286">
                <ele>212.108032</ele>
                <time>2006-11-26T04:31:33Z</time>
            </trkpt>
            <trkpt lon="101.202557" lat="14.652264">
                <ele>212.108032</ele>
                <time>2006-11-26T04:31:34Z</time>
            </trkpt>
            <trkpt lon="101.202536" lat="14.651771">
                <ele>212.588623</ele>
                <time>2006-11-26T04:31:47Z</time>
            </trkpt>
            <trkpt lon="101.202514" lat="14.651577">
                <ele>212.588623</ele>
                <time>2006-11-26T04:31:52Z</time>
            </trkpt>
            <trkpt lon="101.202471" lat="14.651449">
                <ele>213.069336</ele>
                <time>2006-11-26T04:31:55Z</time>
            </trkpt>
            <trkpt lon="101.202343" lat="14.650912">
                <ele>212.588623</ele>
                <time>2006-11-26T04:32:09Z</time>
            </trkpt>
            <trkpt lon="101.203115" lat="14.650762">
                <ele>211.146729</ele>
                <time>2006-11-26T04:32:23Z</time>
            </trkpt>
            <trkpt lon="101.204295" lat="14.650548">
                <ele>210.185425</ele>
                <time>2006-11-26T04:32:41Z</time>
            </trkpt>
            <trkpt lon="101.204853" lat="14.650397">
                <ele>208.743408</ele>
                <time>2006-11-26T04:32:50Z</time>
            </trkpt>
            <trkpt lon="101.205175" lat="14.650376">
                <ele>210.185425</ele>
                <time>2006-11-26T04:32:56Z</time>
            </trkpt>
            <trkpt lon="101.205475" lat="14.650505">
                <ele>210.666016</ele>
                <time>2006-11-26T04:33:03Z</time>
            </trkpt>
            <trkpt lon="101.205626" lat="14.650805">
                <ele>213.550049</ele>
                <time>2006-11-26T04:33:11Z</time>
            </trkpt>
            <trkpt lon="101.205647" lat="14.651363">
                <ele>215.953247</ele>
                <time>2006-11-26T04:33:27Z</time>
            </trkpt>
            <trkpt lon="101.205690" lat="14.652135">
                <ele>214.030640</ele>
                <time>2006-11-26T04:33:44Z</time>
            </trkpt>
            <trkpt lon="101.205690" lat="14.652500">
                <ele>213.069336</ele>
                <time>2006-11-26T04:33:50Z</time>
            </trkpt>
            <trkpt lon="101.205840" lat="14.652929">
                <ele>212.588623</ele>
                <time>2006-11-26T04:33:57Z</time>
            </trkpt>
            <trkpt lon="101.206462" lat="14.653165">
                <ele>214.991943</ele>
                <time>2006-11-26T04:34:15Z</time>
            </trkpt>
            <trkpt lon="101.206870" lat="14.653401">
                <ele>219.798584</ele>
                <time>2006-11-26T04:34:32Z</time>
            </trkpt>
            <trkpt lon="101.207321" lat="14.653895">
                <ele>222.682495</ele>
                <time>2006-11-26T04:34:56Z</time>
            </trkpt>
            <trkpt lon="101.207771" lat="14.654174">
                <ele>224.124512</ele>
                <time>2006-11-26T04:35:14Z</time>
            </trkpt>
            <trkpt lon="101.207879" lat="14.654195">
                <ele>224.124512</ele>
                <time>2006-11-26T04:35:24Z</time>
            </trkpt>
            <trkpt lon="101.207964" lat="14.654217">
                <ele>224.605225</ele>
                <time>2006-11-26T04:35:43Z</time>
            </trkpt>
            <trkpt lon="101.208458" lat="14.654431">
                <ele>226.527832</ele>
                <time>2006-11-26T04:36:06Z</time>
            </trkpt>
            <trkpt lon="101.209188" lat="14.655011">
                <ele>229.892334</ele>
                <time>2006-11-26T04:36:34Z</time>
            </trkpt>
            <trkpt lon="101.209617" lat="14.655697">
                <ele>234.699097</ele>
                <time>2006-11-26T04:36:51Z</time>
            </trkpt>
            <trkpt lon="101.209874" lat="14.656920">
                <ele>234.218384</ele>
                <time>2006-11-26T04:37:11Z</time>
            </trkpt>
            <trkpt lon="101.210024" lat="14.657822">
                <ele>234.699097</ele>
                <time>2006-11-26T04:37:27Z</time>
            </trkpt>
            <trkpt lon="101.210432" lat="14.657822">
                <ele>234.699097</ele>
                <time>2006-11-26T04:37:40Z</time>
            </trkpt>
            <trkpt lon="101.210668" lat="14.658208">
                <ele>235.179688</ele>
                <time>2006-11-26T04:37:54Z</time>
            </trkpt>
            <trkpt lon="101.211140" lat="14.658980">
                <ele>234.218384</ele>
                <time>2006-11-26T04:38:17Z</time>
            </trkpt>
            <trkpt lon="101.211269" lat="14.659839">
                <ele>231.814941</ele>
                <time>2006-11-26T04:38:36Z</time>
            </trkpt>
            <trkpt lon="101.211312" lat="14.660804">
                <ele>229.892334</ele>
                <time>2006-11-26T04:38:56Z</time>
            </trkpt>
            <trkpt lon="101.211398" lat="14.661469">
                <ele>229.411743</ele>
                <time>2006-11-26T04:39:09Z</time>
            </trkpt>
            <trkpt lon="101.211441" lat="14.661620">
                <ele>229.411743</ele>
                <time>2006-11-26T04:39:18Z</time>
            </trkpt>
            <trkpt lon="101.211483" lat="14.661705">
                <ele>229.411743</ele>
                <time>2006-11-26T04:39:36Z</time>
            </trkpt>
            <trkpt lon="101.211505" lat="14.661813">
                <ele>229.411743</ele>
                <time>2006-11-26T04:39:49Z</time>
            </trkpt>
            <trkpt lon="101.211591" lat="14.662027">
                <ele>227.969727</ele>
                <time>2006-11-26T04:40:08Z</time>
            </trkpt>
            <trkpt lon="101.211591" lat="14.662070">
                <ele>227.969727</ele>
                <time>2006-11-26T04:40:12Z</time>
            </trkpt>
            <trkpt lon="101.211677" lat="14.662242">
                <ele>227.969727</ele>
                <time>2006-11-26T04:40:28Z</time>
            </trkpt>
            <trkpt lon="101.211741" lat="14.662435">
                <ele>227.969727</ele>
                <time>2006-11-26T04:40:44Z</time>
            </trkpt>
            <trkpt lon="101.211848" lat="14.662435">
                <ele>226.527832</ele>
                <time>2006-11-26T04:40:57Z</time>
            </trkpt>
            <trkpt lon="101.211956" lat="14.662457">
                <ele>227.489136</ele>
                <time>2006-11-26T04:41:20Z</time>
            </trkpt>
            <trkpt lon="101.211998" lat="14.662542">
                <ele>228.450439</ele>
                <time>2006-11-26T04:41:30Z</time>
            </trkpt>
            <trkpt lon="101.211977" lat="14.662564">
                <ele>227.969727</ele>
                <time>2006-11-26T04:41:36Z</time>
            </trkpt>
            <trkpt lon="101.211762" lat="14.662585">
                <ele>227.489136</ele>
                <time>2006-11-26T04:41:48Z</time>
            </trkpt>
            <trkpt lon="101.211805" lat="14.662907">
                <ele>227.489136</ele>
                <time>2006-11-26T04:42:06Z</time>
            </trkpt>
            <trkpt lon="101.211956" lat="14.663315">
                <ele>226.047119</ele>
                <time>2006-11-26T04:42:25Z</time>
            </trkpt>
            <trkpt lon="101.211977" lat="14.663401">
                <ele>226.527832</ele>
                <time>2006-11-26T04:42:29Z</time>
            </trkpt>
            <trkpt lon="101.212449" lat="14.663465">
                <ele>227.008545</ele>
                <time>2006-11-26T04:42:47Z</time>
            </trkpt>
            <trkpt lon="101.213050" lat="14.663551">
                <ele>227.969727</ele>
                <time>2006-11-26T04:43:07Z</time>
            </trkpt>
            <trkpt lon="101.213737" lat="14.663551">
                <ele>229.892334</ele>
                <time>2006-11-26T04:43:27Z</time>
            </trkpt>
            <trkpt lon="101.214552" lat="14.663594">
                <ele>232.776489</ele>
                <time>2006-11-26T04:43:54Z</time>
            </trkpt>
            <trkpt lon="101.215024" lat="14.663701">
                <ele>236.140991</ele>
                <time>2006-11-26T04:44:16Z</time>
            </trkpt>
            <trkpt lon="101.215518" lat="14.663808">
                <ele>239.024902</ele>
                <time>2006-11-26T04:44:34Z</time>
            </trkpt>
            <trkpt lon="101.215968" lat="14.663808">
                <ele>241.908936</ele>
                <time>2006-11-26T04:44:52Z</time>
            </trkpt>
            <trkpt lon="101.216118" lat="14.663808">
                <ele>243.831543</ele>
                <time>2006-11-26T04:44:59Z</time>
            </trkpt>
            <trkpt lon="101.216161" lat="14.663894">
                <ele>244.312256</ele>
                <time>2006-11-26T04:45:03Z</time>
            </trkpt>
            <trkpt lon="101.216311" lat="14.664516">
                <ele>244.312256</ele>
                <time>2006-11-26T04:45:21Z</time>
            </trkpt>
            <trkpt lon="101.216547" lat="14.665418">
                <ele>246.715454</ele>
                <time>2006-11-26T04:45:44Z</time>
            </trkpt>
            <trkpt lon="101.216719" lat="14.666104">
                <ele>246.715454</ele>
                <time>2006-11-26T04:46:01Z</time>
            </trkpt>
            <trkpt lon="101.216547" lat="14.666212">
                <ele>244.792847</ele>
                <time>2006-11-26T04:46:06Z</time>
            </trkpt>
            <trkpt lon="101.215518" lat="14.666512">
                <ele>238.544312</ele>
                <time>2006-11-26T04:46:25Z</time>
            </trkpt>
            <trkpt lon="101.215110" lat="14.666641">
                <ele>235.660278</ele>
                <time>2006-11-26T04:46:33Z</time>
            </trkpt>
            <trkpt lon="101.214895" lat="14.666727">
                <ele>235.660278</ele>
                <time>2006-11-26T04:46:37Z</time>
            </trkpt>
            <trkpt lon="101.214445" lat="14.666877">
                <ele>233.737671</ele>
                <time>2006-11-26T04:46:50Z</time>
            </trkpt>
            <trkpt lon="101.214252" lat="14.666984">
                <ele>230.373047</ele>
                <time>2006-11-26T04:47:00Z</time>
            </trkpt>
            <trkpt lon="101.213973" lat="14.666984">
                <ele>228.931152</ele>
                <time>2006-11-26T04:47:12Z</time>
            </trkpt>
            <trkpt lon="101.213779" lat="14.667091">
                <ele>227.008545</ele>
                <time>2006-11-26T04:47:18Z</time>
            </trkpt>
            <trkpt lon="101.213071" lat="14.667349">
                <ele>221.721191</ele>
                <time>2006-11-26T04:47:34Z</time>
            </trkpt>
            <trkpt lon="101.212513" lat="14.667542">
                <ele>220.279175</ele>
                <time>2006-11-26T04:47:49Z</time>
            </trkpt>
            <trkpt lon="101.211827" lat="14.667821">
                <ele>217.395386</ele>
                <time>2006-11-26T04:48:05Z</time>
            </trkpt>
            <trkpt lon="101.211205" lat="14.668057">
                <ele>215.953247</ele>
                <time>2006-11-26T04:48:22Z</time>
            </trkpt>
            <trkpt lon="101.211033" lat="14.668143">
                <ele>214.991943</ele>
                <time>2006-11-26T04:48:27Z</time>
            </trkpt>
            <trkpt lon="101.211011" lat="14.668186">
                <ele>215.472656</ele>
                <time>2006-11-26T04:48:36Z</time>
            </trkpt>
            <trkpt lon="101.211054" lat="14.668250">
                <ele>215.953247</ele>
                <time>2006-11-26T04:48:43Z</time>
            </trkpt>
            <trkpt lon="101.211054" lat="14.668293">
                <ele>216.433960</ele>
                <time>2006-11-26T04:48:48Z</time>
            </trkpt>
            <trkpt lon="101.211097" lat="14.668314">
                <ele>214.991943</ele>
                <time>2006-11-26T04:49:04Z</time>
            </trkpt>
            <trkpt lon="101.211119" lat="14.668293">
                <ele>224.124512</ele>
                <time>2006-11-26T04:50:18Z</time>
            </trkpt>
            <trkpt lon="101.211226" lat="14.668272">
                <ele>224.605225</ele>
                <time>2006-11-26T04:50:23Z</time>
            </trkpt>
            <trkpt lon="101.211805" lat="14.668207">
                <ele>221.240601</ele>
                <time>2006-11-26T04:50:42Z</time>
            </trkpt>
            <trkpt lon="101.212513" lat="14.668357">
                <ele>218.837280</ele>
                <time>2006-11-26T04:51:01Z</time>
            </trkpt>
            <trkpt lon="101.213157" lat="14.668787">
                <ele>220.279175</ele>
                <time>2006-11-26T04:51:19Z</time>
            </trkpt>
            <trkpt lon="101.213651" lat="14.669409">
                <ele>220.759888</ele>
                <time>2006-11-26T04:51:37Z</time>
            </trkpt>
            <trkpt lon="101.214252" lat="14.669945">
                <ele>224.124512</ele>
                <time>2006-11-26T04:51:58Z</time>
            </trkpt>
            <trkpt lon="101.214852" lat="14.670181">
                <ele>225.085938</ele>
                <time>2006-11-26T04:52:15Z</time>
            </trkpt>
            <trkpt lon="101.214788" lat="14.670417">
                <ele>225.566528</ele>
                <time>2006-11-26T04:52:21Z</time>
            </trkpt>
            <trkpt lon="101.214552" lat="14.670761">
                <ele>225.566528</ele>
                <time>2006-11-26T04:52:29Z</time>
            </trkpt>
            <trkpt lon="101.214423" lat="14.671082">
                <ele>225.566528</ele>
                <time>2006-11-26T04:52:35Z</time>
            </trkpt>
            <trkpt lon="101.214466" lat="14.672713">
                <ele>224.124512</ele>
                <time>2006-11-26T04:53:04Z</time>
            </trkpt>
            <trkpt lon="101.214445" lat="14.673979">
                <ele>222.201782</ele>
                <time>2006-11-26T04:53:26Z</time>
            </trkpt>
            <trkpt lon="101.214423" lat="14.674430">
                <ele>222.682495</ele>
                <time>2006-11-26T04:53:40Z</time>
            </trkpt>
            <trkpt lon="101.214573" lat="14.674859">
                <ele>222.682495</ele>
                <time>2006-11-26T04:53:56Z</time>
            </trkpt>
            <trkpt lon="101.214659" lat="14.675438">
                <ele>222.201782</ele>
                <time>2006-11-26T04:54:12Z</time>
            </trkpt>
            <trkpt lon="101.214809" lat="14.675846">
                <ele>222.201782</ele>
                <time>2006-11-26T04:54:26Z</time>
            </trkpt>
            <trkpt lon="101.215303" lat="14.676383">
                <ele>222.682495</ele>
                <time>2006-11-26T04:54:43Z</time>
            </trkpt>
            <trkpt lon="101.216118" lat="14.677069">
                <ele>223.163208</ele>
                <time>2006-11-26T04:55:05Z</time>
            </trkpt>
            <trkpt lon="101.217041" lat="14.677606">
                <ele>225.085938</ele>
                <time>2006-11-26T04:55:29Z</time>
            </trkpt>
            <trkpt lon="101.218028" lat="14.678185">
                <ele>227.008545</ele>
                <time>2006-11-26T04:55:57Z</time>
            </trkpt>
            <trkpt lon="101.218328" lat="14.678314">
                <ele>228.450439</ele>
                <time>2006-11-26T04:56:05Z</time>
            </trkpt>
            <trkpt lon="101.218865" lat="14.678807">
                <ele>226.047119</ele>
                <time>2006-11-26T04:56:20Z</time>
            </trkpt>
            <trkpt lon="101.219316" lat="14.678893">
                <ele>227.489136</ele>
                <time>2006-11-26T04:56:31Z</time>
            </trkpt>
            <trkpt lon="101.219466" lat="14.678872">
                <ele>227.008545</ele>
                <time>2006-11-26T04:56:41Z</time>
            </trkpt>
            <trkpt lon="101.219959" lat="14.678915">
                <ele>227.008545</ele>
                <time>2006-11-26T04:56:54Z</time>
            </trkpt>
            <trkpt lon="101.220345" lat="14.678979">
                <ele>226.047119</ele>
                <time>2006-11-26T04:57:05Z</time>
            </trkpt>
            <trkpt lon="101.220388" lat="14.678979">
                <ele>226.047119</ele>
                <time>2006-11-26T04:57:07Z</time>
            </trkpt>
            <trkpt lon="101.220367" lat="14.678936">
                <ele>227.008545</ele>
                <time>2006-11-26T04:57:13Z</time>
            </trkpt>
            <trkpt lon="101.220238" lat="14.678936">
                <ele>226.047119</ele>
                <time>2006-11-26T04:57:26Z</time>
            </trkpt>
            <trkpt lon="101.220238" lat="14.678957">
                <ele>226.047119</ele>
                <time>2006-11-26T04:57:37Z</time>
            </trkpt>
            <trkpt lon="101.220281" lat="14.678979">
                <ele>226.527832</ele>
                <time>2006-11-26T04:57:41Z</time>
            </trkpt>
            <trkpt lon="101.220667" lat="14.679129">
                <ele>228.931152</ele>
                <time>2006-11-26T04:57:54Z</time>
            </trkpt>
            <trkpt lon="101.220732" lat="14.679258">
                <ele>229.892334</ele>
                <time>2006-11-26T04:57:58Z</time>
            </trkpt>
            <trkpt lon="101.220989" lat="14.679687">
                <ele>230.853760</ele>
                <time>2006-11-26T04:58:12Z</time>
            </trkpt>
            <trkpt lon="101.221547" lat="14.680395">
                <ele>231.334351</ele>
                <time>2006-11-26T04:58:32Z</time>
            </trkpt>
            <trkpt lon="101.221611" lat="14.680459">
                <ele>230.853760</ele>
                <time>2006-11-26T04:58:34Z</time>
            </trkpt>
            <trkpt lon="101.222684" lat="14.680953">
                <ele>232.295776</ele>
                <time>2006-11-26T04:58:58Z</time>
            </trkpt>
            <trkpt lon="101.223478" lat="14.681575">
                <ele>233.737671</ele>
                <time>2006-11-26T04:59:18Z</time>
            </trkpt>
            <trkpt lon="101.224465" lat="14.682348">
                <ele>234.699097</ele>
                <time>2006-11-26T04:59:42Z</time>
            </trkpt>
            <trkpt lon="101.225023" lat="14.682884">
                <ele>233.737671</ele>
                <time>2006-11-26T04:59:56Z</time>
            </trkpt>
            <trkpt lon="101.225088" lat="14.683506">
                <ele>233.737671</ele>
                <time>2006-11-26T05:00:13Z</time>
            </trkpt>
            <trkpt lon="101.225045" lat="14.683807">
                <ele>236.140991</ele>
                <time>2006-11-26T05:00:32Z</time>
            </trkpt>
            <trkpt lon="101.225023" lat="14.684129">
                <ele>235.660278</ele>
                <time>2006-11-26T05:00:46Z</time>
            </trkpt>
            <trkpt lon="101.225045" lat="14.684300">
                <ele>235.660278</ele>
                <time>2006-11-26T05:00:53Z</time>
            </trkpt>
            <trkpt lon="101.224980" lat="14.684451">
                <ele>235.660278</ele>
                <time>2006-11-26T05:00:58Z</time>
            </trkpt>
            <trkpt lon="101.224895" lat="14.684494">
                <ele>235.179688</ele>
                <time>2006-11-26T05:01:12Z</time>
            </trkpt>
            <trkpt lon="101.224744" lat="14.684687">
                <ele>235.179688</ele>
                <time>2006-11-26T05:01:21Z</time>
            </trkpt>
            <trkpt lon="101.224830" lat="14.684751">
                <ele>234.218384</ele>
                <time>2006-11-26T05:01:27Z</time>
            </trkpt>
            <trkpt lon="101.225388" lat="14.684837">
                <ele>230.853760</ele>
                <time>2006-11-26T05:01:41Z</time>
            </trkpt>
            <trkpt lon="101.226332" lat="14.684901">
                <ele>230.373047</ele>
                <time>2006-11-26T05:02:02Z</time>
            </trkpt>
            <trkpt lon="101.226547" lat="14.684708">
                <ele>229.411743</ele>
                <time>2006-11-26T05:02:08Z</time>
            </trkpt>
            <trkpt lon="101.226954" lat="14.684215">
                <ele>227.969727</ele>
                <time>2006-11-26T05:02:23Z</time>
            </trkpt>
            <trkpt lon="101.227169" lat="14.684193">
                <ele>227.008545</ele>
                <time>2006-11-26T05:02:28Z</time>
            </trkpt>
            <trkpt lon="101.227341" lat="14.684107">
                <ele>227.008545</ele>
                <time>2006-11-26T05:02:32Z</time>
            </trkpt>
            <trkpt lon="101.227448" lat="14.684215">
                <ele>227.969727</ele>
                <time>2006-11-26T05:02:36Z</time>
            </trkpt>
            <trkpt lon="101.228049" lat="14.684730">
                <ele>229.411743</ele>
                <time>2006-11-26T05:02:55Z</time>
            </trkpt>
            <trkpt lon="101.228607" lat="14.685373">
                <ele>230.853760</ele>
                <time>2006-11-26T05:03:15Z</time>
            </trkpt>
            <trkpt lon="101.229014" lat="14.686253">
                <ele>233.737671</ele>
                <time>2006-11-26T05:03:36Z</time>
            </trkpt>
            <trkpt lon="101.229444" lat="14.687412">
                <ele>235.660278</ele>
                <time>2006-11-26T05:04:02Z</time>
            </trkpt>
            <trkpt lon="101.229937" lat="14.688270">
                <ele>238.063599</ele>
                <time>2006-11-26T05:04:22Z</time>
            </trkpt>
            <trkpt lon="101.230559" lat="14.689128">
                <ele>237.102295</ele>
                <time>2006-11-26T05:04:44Z</time>
            </trkpt>
            <trkpt lon="101.231353" lat="14.690158">
                <ele>235.660278</ele>
                <time>2006-11-26T05:05:06Z</time>
            </trkpt>
            <trkpt lon="101.232147" lat="14.691060">
                <ele>235.179688</ele>
                <time>2006-11-26T05:05:24Z</time>
            </trkpt>
            <trkpt lon="101.232812" lat="14.691961">
                <ele>234.218384</ele>
                <time>2006-11-26T05:05:42Z</time>
            </trkpt>
            <trkpt lon="101.233220" lat="14.692497">
                <ele>234.218384</ele>
                <time>2006-11-26T05:05:53Z</time>
            </trkpt>
            <trkpt lon="101.233284" lat="14.692605">
                <ele>234.218384</ele>
                <time>2006-11-26T05:05:55Z</time>
            </trkpt>
            <trkpt lon="101.233263" lat="14.693463">
                <ele>234.699097</ele>
                <time>2006-11-26T05:06:09Z</time>
            </trkpt>
            <trkpt lon="101.232920" lat="14.694171">
                <ele>234.699097</ele>
                <time>2006-11-26T05:06:23Z</time>
            </trkpt>
            <trkpt lon="101.232255" lat="14.695308">
                <ele>233.257080</ele>
                <time>2006-11-26T05:06:45Z</time>
            </trkpt>
            <trkpt lon="101.231954" lat="14.695845">
                <ele>231.814941</ele>
                <time>2006-11-26T05:06:56Z</time>
            </trkpt>
            <trkpt lon="101.231933" lat="14.696188">
                <ele>232.295776</ele>
                <time>2006-11-26T05:07:05Z</time>
            </trkpt>
            <trkpt lon="101.231868" lat="14.696167">
                <ele>231.814941</ele>
                <time>2006-11-26T05:07:18Z</time>
            </trkpt>
            <trkpt lon="101.231890" lat="14.696167">
                <ele>234.699097</ele>
                <time>2006-11-26T05:07:52Z</time>
            </trkpt>
            <trkpt lon="101.231933" lat="14.696124">
                <ele>232.776489</ele>
                <time>2006-11-26T05:18:42Z</time>
            </trkpt>
            <trkpt lon="101.231933" lat="14.696167">
                <ele>233.257080</ele>
                <time>2006-11-26T05:18:58Z</time>
            </trkpt>
            <trkpt lon="101.231782" lat="14.696381">
                <ele>231.814941</ele>
                <time>2006-11-26T05:19:10Z</time>
            </trkpt>
            <trkpt lon="101.231804" lat="14.696424">
                <ele>231.334351</ele>
                <time>2006-11-26T05:19:21Z</time>
            </trkpt>
            <trkpt lon="101.231954" lat="14.696596">
                <ele>231.334351</ele>
                <time>2006-11-26T05:19:44Z</time>
            </trkpt>
            <trkpt lon="101.232083" lat="14.696724">
                <ele>230.373047</ele>
                <time>2006-11-26T05:19:48Z</time>
            </trkpt>
            <trkpt lon="101.232190" lat="14.696832">
                <ele>229.892334</ele>
                <time>2006-11-26T05:19:51Z</time>
            </trkpt>
            <trkpt lon="101.232383" lat="14.697154">
                <ele>227.489136</ele>
                <time>2006-11-26T05:19:58Z</time>
            </trkpt>
            <trkpt lon="101.232491" lat="14.697261">
                <ele>225.566528</ele>
                <time>2006-11-26T05:20:02Z</time>
            </trkpt>
            <trkpt lon="101.232727" lat="14.697497">
                <ele>227.969727</ele>
                <time>2006-11-26T05:20:13Z</time>
            </trkpt>
            <trkpt lon="101.232855" lat="14.697990">
                <ele>229.411743</ele>
                <time>2006-11-26T05:20:27Z</time>
            </trkpt>
            <trkpt lon="101.233134" lat="14.698720">
                <ele>228.931152</ele>
                <time>2006-11-26T05:20:43Z</time>
            </trkpt>
            <trkpt lon="101.233370" lat="14.699600">
                <ele>228.450439</ele>
                <time>2006-11-26T05:21:01Z</time>
            </trkpt>
            <trkpt lon="101.233714" lat="14.700565">
                <ele>226.527832</ele>
                <time>2006-11-26T05:21:21Z</time>
            </trkpt>
            <trkpt lon="101.233799" lat="14.701531">
                <ele>225.566528</ele>
                <time>2006-11-26T05:21:40Z</time>
            </trkpt>
            <trkpt lon="101.233821" lat="14.702260">
                <ele>226.527832</ele>
                <time>2006-11-26T05:21:58Z</time>
            </trkpt>
            <trkpt lon="101.233907" lat="14.703162">
                <ele>228.931152</ele>
                <time>2006-11-26T05:22:21Z</time>
            </trkpt>
            <trkpt lon="101.234035" lat="14.703913">
                <ele>232.295776</ele>
                <time>2006-11-26T05:22:42Z</time>
            </trkpt>
            <trkpt lon="101.234314" lat="14.704106">
                <ele>236.140991</ele>
                <time>2006-11-26T05:22:56Z</time>
            </trkpt>
            <trkpt lon="101.234701" lat="14.704406">
                <ele>238.544312</ele>
                <time>2006-11-26T05:23:15Z</time>
            </trkpt>
            <trkpt lon="101.234980" lat="14.704599">
                <ele>242.389648</ele>
                <time>2006-11-26T05:23:33Z</time>
            </trkpt>
            <trkpt lon="101.235259" lat="14.704685">
                <ele>246.234863</ele>
                <time>2006-11-26T05:23:53Z</time>
            </trkpt>
            <trkpt lon="101.235344" lat="14.704728">
                <ele>245.754150</ele>
                <time>2006-11-26T05:24:05Z</time>
            </trkpt>
            <trkpt lon="101.235623" lat="14.704814">
                <ele>241.908936</ele>
                <time>2006-11-26T05:24:10Z</time>
            </trkpt>
            <trkpt lon="101.235816" lat="14.705050">
                <ele>240.467041</ele>
                <time>2006-11-26T05:24:14Z</time>
            </trkpt>
            <trkpt lon="101.236010" lat="14.705393">
                <ele>239.986206</ele>
                <time>2006-11-26T05:24:20Z</time>
            </trkpt>
            <trkpt lon="101.236074" lat="14.705629">
                <ele>239.986206</ele>
                <time>2006-11-26T05:24:24Z</time>
            </trkpt>
            <trkpt lon="101.236203" lat="14.705822">
                <ele>239.505493</ele>
                <time>2006-11-26T05:24:28Z</time>
            </trkpt>
            <trkpt lon="101.236310" lat="14.705865">
                <ele>239.505493</ele>
                <time>2006-11-26T05:24:30Z</time>
            </trkpt>
            <trkpt lon="101.236482" lat="14.706273">
                <ele>239.024902</ele>
                <time>2006-11-26T05:24:37Z</time>
            </trkpt>
            <trkpt lon="101.236482" lat="14.706380">
                <ele>238.544312</ele>
                <time>2006-11-26T05:24:39Z</time>
            </trkpt>
            <trkpt lon="101.236675" lat="14.706595">
                <ele>239.986206</ele>
                <time>2006-11-26T05:24:45Z</time>
            </trkpt>
            <trkpt lon="101.237104" lat="14.707003">
                <ele>241.908936</ele>
                <time>2006-11-26T05:25:00Z</time>
            </trkpt>
            <trkpt lon="101.237469" lat="14.707861">
                <ele>242.389648</ele>
                <time>2006-11-26T05:25:19Z</time>
            </trkpt>
            <trkpt lon="101.237555" lat="14.708118">
                <ele>242.389648</ele>
                <time>2006-11-26T05:25:24Z</time>
            </trkpt>
            <trkpt lon="101.237898" lat="14.708698">
                <ele>242.870239</ele>
                <time>2006-11-26T05:25:39Z</time>
            </trkpt>
            <trkpt lon="101.238005" lat="14.708934">
                <ele>244.312256</ele>
                <time>2006-11-26T05:25:46Z</time>
            </trkpt>
            <trkpt lon="101.237984" lat="14.709020">
                <ele>245.754150</ele>
                <time>2006-11-26T05:25:50Z</time>
            </trkpt>
            <trkpt lon="101.237662" lat="14.709578">
                <ele>243.831543</ele>
                <time>2006-11-26T05:26:05Z</time>
            </trkpt>
            <trkpt lon="101.237640" lat="14.709599">
                <ele>243.350830</ele>
                <time>2006-11-26T05:26:06Z</time>
            </trkpt>
            <trkpt lon="101.237555" lat="14.709878">
                <ele>241.908936</ele>
                <time>2006-11-26T05:26:11Z</time>
            </trkpt>
            <trkpt lon="101.237576" lat="14.710522">
                <ele>240.947632</ele>
                <time>2006-11-26T05:26:22Z</time>
            </trkpt>
            <trkpt lon="101.237683" lat="14.711080">
                <ele>240.467041</ele>
                <time>2006-11-26T05:26:36Z</time>
            </trkpt>
            <trkpt lon="101.237726" lat="14.711058">
                <ele>240.467041</ele>
                <time>2006-11-26T05:26:41Z</time>
            </trkpt>
            <trkpt lon="101.237619" lat="14.710650">
                <ele>239.986206</ele>
                <time>2006-11-26T05:26:58Z</time>
            </trkpt>
            <trkpt lon="101.237555" lat="14.710007">
                <ele>240.467041</ele>
                <time>2006-11-26T05:27:18Z</time>
            </trkpt>
            <trkpt lon="101.237555" lat="14.710007">
                <ele>240.467041</ele>
                <time>2006-11-26T05:27:19Z</time>
            </trkpt>
            <trkpt lon="101.237533" lat="14.709985">
                <ele>241.428223</ele>
                <time>2006-11-26T05:27:25Z</time>
            </trkpt>
            <trkpt lon="101.237533" lat="14.710050">
                <ele>241.428223</ele>
                <time>2006-11-26T05:27:30Z</time>
            </trkpt>
            <trkpt lon="101.237555" lat="14.710457">
                <ele>240.947632</ele>
                <time>2006-11-26T05:27:44Z</time>
            </trkpt>
            <trkpt lon="101.237683" lat="14.710994">
                <ele>240.467041</ele>
                <time>2006-11-26T05:27:57Z</time>
            </trkpt>
            <trkpt lon="101.237597" lat="14.711187">
                <ele>239.024902</ele>
                <time>2006-11-26T05:28:02Z</time>
            </trkpt>
            <trkpt lon="101.237555" lat="14.711466">
                <ele>237.582886</ele>
                <time>2006-11-26T05:28:08Z</time>
            </trkpt>
            <trkpt lon="101.237726" lat="14.711916">
                <ele>237.102295</ele>
                <time>2006-11-26T05:28:17Z</time>
            </trkpt>
            <trkpt lon="101.237597" lat="14.712002">
                <ele>237.102295</ele>
                <time>2006-11-26T05:28:24Z</time>
            </trkpt>
            <trkpt lon="101.237147" lat="14.711831">
                <ele>239.505493</ele>
                <time>2006-11-26T05:28:42Z</time>
            </trkpt>
            <trkpt lon="101.236632" lat="14.711680">
                <ele>242.389648</ele>
                <time>2006-11-26T05:29:00Z</time>
            </trkpt>
            <trkpt lon="101.236181" lat="14.711616">
                <ele>244.792847</ele>
                <time>2006-11-26T05:29:18Z</time>
            </trkpt>
            <trkpt lon="101.236181" lat="14.711938">
                <ele>244.792847</ele>
                <time>2006-11-26T05:29:29Z</time>
            </trkpt>
            <trkpt lon="101.236053" lat="14.712217">
                <ele>243.831543</ele>
                <time>2006-11-26T05:29:36Z</time>
            </trkpt>
            <trkpt lon="101.235881" lat="14.712753">
                <ele>246.234863</ele>
                <time>2006-11-26T05:29:51Z</time>
            </trkpt>
            <trkpt lon="101.235731" lat="14.713397">
                <ele>245.754150</ele>
                <time>2006-11-26T05:30:08Z</time>
            </trkpt>
            <trkpt lon="101.235580" lat="14.713526">
                <ele>247.196045</ele>
                <time>2006-11-26T05:30:18Z</time>
            </trkpt>
            <trkpt lon="101.235580" lat="14.713526">
                <ele>247.196045</ele>
                <time>2006-11-26T05:30:19Z</time>
            </trkpt>
            <trkpt lon="101.235623" lat="14.713526">
                <ele>246.715454</ele>
                <time>2006-11-26T05:30:29Z</time>
            </trkpt>
            <trkpt lon="101.235688" lat="14.713440">
                <ele>246.234863</ele>
                <time>2006-11-26T05:30:33Z</time>
            </trkpt>
            <trkpt lon="101.235838" lat="14.713011">
                <ele>245.273438</ele>
                <time>2006-11-26T05:30:47Z</time>
            </trkpt>
            <trkpt lon="101.235902" lat="14.712496">
                <ele>244.792847</ele>
                <time>2006-11-26T05:31:02Z</time>
            </trkpt>
            <trkpt lon="101.235881" lat="14.712496">
                <ele>244.792847</ele>
                <time>2006-11-26T05:31:03Z</time>
            </trkpt>
            <trkpt lon="101.235795" lat="14.712496">
                <ele>244.792847</ele>
                <time>2006-11-26T05:31:09Z</time>
            </trkpt>
            <trkpt lon="101.235473" lat="14.712496">
                <ele>247.196045</ele>
                <time>2006-11-26T05:31:27Z</time>
            </trkpt>
            <trkpt lon="101.235194" lat="14.712410">
                <ele>249.118774</ele>
                <time>2006-11-26T05:31:46Z</time>
            </trkpt>
            <trkpt lon="101.234958" lat="14.712346">
                <ele>250.560791</ele>
                <time>2006-11-26T05:31:59Z</time>
            </trkpt>
            <trkpt lon="101.234572" lat="14.712217">
                <ele>252.963989</ele>
                <time>2006-11-26T05:32:19Z</time>
            </trkpt>
            <trkpt lon="101.234272" lat="14.712024">
                <ele>252.002808</ele>
                <time>2006-11-26T05:32:29Z</time>
            </trkpt>
            <trkpt lon="101.234186" lat="14.711981">
                <ele>251.522095</ele>
                <time>2006-11-26T05:32:31Z</time>
            </trkpt>
            <trkpt lon="101.233692" lat="14.711616">
                <ele>247.676758</ele>
                <time>2006-11-26T05:32:43Z</time>
            </trkpt>
            <trkpt lon="101.233435" lat="14.711487">
                <ele>246.234863</ele>
                <time>2006-11-26T05:32:48Z</time>
            </trkpt>
            <trkpt lon="101.233199" lat="14.711380">
                <ele>243.831543</ele>
                <time>2006-11-26T05:32:58Z</time>
            </trkpt>
            <trkpt lon="101.233156" lat="14.711359">
                <ele>244.312256</ele>
                <time>2006-11-26T05:33:16Z</time>
            </trkpt>
            <trkpt lon="101.233048" lat="14.711294">
                <ele>244.312256</ele>
                <time>2006-11-26T05:33:32Z</time>
            </trkpt>
            <trkpt lon="101.232791" lat="14.711101">
                <ele>242.870239</ele>
                <time>2006-11-26T05:33:44Z</time>
            </trkpt>
            <trkpt lon="101.232512" lat="14.710886">
                <ele>240.947632</ele>
                <time>2006-11-26T05:33:55Z</time>
            </trkpt>
            <trkpt lon="101.232212" lat="14.710672">
                <ele>239.024902</ele>
                <time>2006-11-26T05:34:08Z</time>
            </trkpt>
            <trkpt lon="101.232018" lat="14.710500">
                <ele>237.582886</ele>
                <time>2006-11-26T05:34:18Z</time>
            </trkpt>
            <trkpt lon="101.231954" lat="14.710393">
                <ele>236.621704</ele>
                <time>2006-11-26T05:34:23Z</time>
            </trkpt>
            <trkpt lon="101.231675" lat="14.710157">
                <ele>235.660278</ele>
                <time>2006-11-26T05:34:35Z</time>
            </trkpt>
            <trkpt lon="101.231546" lat="14.710050">
                <ele>234.699097</ele>
                <time>2006-11-26T05:34:39Z</time>
            </trkpt>
            <trkpt lon="101.231353" lat="14.709985">
                <ele>233.737671</ele>
                <time>2006-11-26T05:34:44Z</time>
            </trkpt>
            <trkpt lon="101.231096" lat="14.709921">
                <ele>232.776489</ele>
                <time>2006-11-26T05:34:50Z</time>
            </trkpt>
            <trkpt lon="101.230388" lat="14.709492">
                <ele>227.969727</ele>
                <time>2006-11-26T05:35:04Z</time>
            </trkpt>
            <trkpt lon="101.230259" lat="14.709384">
                <ele>227.008545</ele>
                <time>2006-11-26T05:35:07Z</time>
            </trkpt>
            <trkpt lon="101.230023" lat="14.709299">
                <ele>225.085938</ele>
                <time>2006-11-26T05:35:11Z</time>
            </trkpt>
            <trkpt lon="101.229787" lat="14.709148">
                <ele>223.643799</ele>
                <time>2006-11-26T05:35:15Z</time>
            </trkpt>
            <trkpt lon="101.229229" lat="14.709234">
                <ele>220.279175</ele>
                <time>2006-11-26T05:35:23Z</time>
            </trkpt>
            <trkpt lon="101.228521" lat="14.709427">
                <ele>213.550049</ele>
                <time>2006-11-26T05:35:31Z</time>
            </trkpt>
            <trkpt lon="101.227984" lat="14.709964">
                <ele>210.185425</ele>
                <time>2006-11-26T05:35:39Z</time>
            </trkpt>
            <trkpt lon="101.227920" lat="14.710114">
                <ele>209.704834</ele>
                <time>2006-11-26T05:35:41Z</time>
            </trkpt>
            <trkpt lon="101.227298" lat="14.711101">
                <ele>205.859497</ele>
                <time>2006-11-26T05:35:54Z</time>
            </trkpt>
            <trkpt lon="101.227255" lat="14.711187">
                <ele>205.859497</ele>
                <time>2006-11-26T05:35:55Z</time>
            </trkpt>
            <trkpt lon="101.226976" lat="14.711659">
                <ele>203.936890</ele>
                <time>2006-11-26T05:36:01Z</time>
            </trkpt>
            <trkpt lon="101.225817" lat="14.712431">
                <ele>199.130127</ele>
                <time>2006-11-26T05:36:17Z</time>
            </trkpt>
            <trkpt lon="101.225667" lat="14.712474">
                <ele>199.130127</ele>
                <time>2006-11-26T05:36:19Z</time>
            </trkpt>
            <trkpt lon="101.225302" lat="14.712474">
                <ele>198.168945</ele>
                <time>2006-11-26T05:36:24Z</time>
            </trkpt>
            <trkpt lon="101.224616" lat="14.712689">
                <ele>196.246338</ele>
                <time>2006-11-26T05:36:34Z</time>
            </trkpt>
            <trkpt lon="101.224551" lat="14.712732">
                <ele>196.246338</ele>
                <time>2006-11-26T05:36:35Z</time>
            </trkpt>
            <trkpt lon="101.224208" lat="14.713075">
                <ele>195.765625</ele>
                <time>2006-11-26T05:36:42Z</time>
            </trkpt>
            <trkpt lon="101.224101" lat="14.713247">
                <ele>196.246338</ele>
                <time>2006-11-26T05:36:45Z</time>
            </trkpt>
            <trkpt lon="101.223629" lat="14.714148">
                <ele>196.726929</ele>
                <time>2006-11-26T05:37:00Z</time>
            </trkpt>
            <trkpt lon="101.223071" lat="14.715157">
                <ele>193.362305</ele>
                <time>2006-11-26T05:37:17Z</time>
            </trkpt>
            <trkpt lon="101.222577" lat="14.715929">
                <ele>192.881714</ele>
                <time>2006-11-26T05:37:30Z</time>
            </trkpt>
            <trkpt lon="101.222255" lat="14.716187">
                <ele>191.920288</ele>
                <time>2006-11-26T05:37:36Z</time>
            </trkpt>
            <trkpt lon="101.221762" lat="14.716208">
                <ele>191.439575</ele>
                <time>2006-11-26T05:37:43Z</time>
            </trkpt>
            <trkpt lon="101.221633" lat="14.716144">
                <ele>191.439575</ele>
                <time>2006-11-26T05:37:45Z</time>
            </trkpt>
            <trkpt lon="101.220818" lat="14.715564">
                <ele>190.478394</ele>
                <time>2006-11-26T05:37:59Z</time>
            </trkpt>
            <trkpt lon="101.220667" lat="14.715436">
                <ele>189.997681</ele>
                <time>2006-11-26T05:38:02Z</time>
            </trkpt>
            <trkpt lon="101.220152" lat="14.714856">
                <ele>190.478394</ele>
                <time>2006-11-26T05:38:14Z</time>
            </trkpt>
            <trkpt lon="101.219444" lat="14.714255">
                <ele>191.439575</ele>
                <time>2006-11-26T05:38:31Z</time>
            </trkpt>
            <trkpt lon="101.218822" lat="14.714448">
                <ele>190.958984</ele>
                <time>2006-11-26T05:38:41Z</time>
            </trkpt>
            <trkpt lon="101.217792" lat="14.714856">
                <ele>189.036377</ele>
                <time>2006-11-26T05:38:56Z</time>
            </trkpt>
            <trkpt lon="101.216762" lat="14.715328">
                <ele>187.594360</ele>
                <time>2006-11-26T05:39:13Z</time>
            </trkpt>
            <trkpt lon="101.216569" lat="14.715092">
                <ele>189.036377</ele>
                <time>2006-11-26T05:39:20Z</time>
            </trkpt>
            <trkpt lon="101.216097" lat="14.714234">
                <ele>188.555786</ele>
                <time>2006-11-26T05:39:39Z</time>
            </trkpt>
            <trkpt lon="101.215625" lat="14.713032">
                <ele>189.516968</ele>
                <time>2006-11-26T05:40:01Z</time>
            </trkpt>
            <trkpt lon="101.215410" lat="14.711509">
                <ele>189.516968</ele>
                <time>2006-11-26T05:40:26Z</time>
            </trkpt>
            <trkpt lon="101.215067" lat="14.710393">
                <ele>189.036377</ele>
                <time>2006-11-26T05:40:43Z</time>
            </trkpt>
            <trkpt lon="101.214230" lat="14.709020">
                <ele>189.516968</ele>
                <time>2006-11-26T05:41:04Z</time>
            </trkpt>
            <trkpt lon="101.213329" lat="14.707582">
                <ele>190.958984</ele>
                <time>2006-11-26T05:41:28Z</time>
            </trkpt>
            <trkpt lon="101.212513" lat="14.706316">
                <ele>193.362305</ele>
                <time>2006-11-26T05:41:52Z</time>
            </trkpt>
            <trkpt lon="101.212170" lat="14.705780">
                <ele>193.843018</ele>
                <time>2006-11-26T05:42:03Z</time>
            </trkpt>
            <trkpt lon="101.211934" lat="14.705758">
                <ele>193.362305</ele>
                <time>2006-11-26T05:42:09Z</time>
            </trkpt>
            <trkpt lon="101.211312" lat="14.705715">
                <ele>194.804321</ele>
                <time>2006-11-26T05:42:22Z</time>
            </trkpt>
            <trkpt lon="101.211183" lat="14.705715">
                <ele>194.804321</ele>
                <time>2006-11-26T05:42:25Z</time>
            </trkpt>
            <trkpt lon="101.211097" lat="14.705715">
                <ele>194.804321</ele>
                <time>2006-11-26T05:42:27Z</time>
            </trkpt>
            <trkpt lon="101.210861" lat="14.705608">
                <ele>195.284912</ele>
                <time>2006-11-26T05:42:33Z</time>
            </trkpt>
            <trkpt lon="101.210604" lat="14.705243">
                <ele>195.765625</ele>
                <time>2006-11-26T05:42:44Z</time>
            </trkpt>
            <trkpt lon="101.210411" lat="14.705050">
                <ele>195.284912</ele>
                <time>2006-11-26T05:42:51Z</time>
            </trkpt>
            <trkpt lon="101.210175" lat="14.704878">
                <ele>195.765625</ele>
                <time>2006-11-26T05:42:58Z</time>
            </trkpt>
            <trkpt lon="101.209960" lat="14.704792">
                <ele>196.246338</ele>
                <time>2006-11-26T05:43:04Z</time>
            </trkpt>
            <trkpt lon="101.209917" lat="14.704728">
                <ele>196.246338</ele>
                <time>2006-11-26T05:43:06Z</time>
            </trkpt>
            <trkpt lon="101.209531" lat="14.704471">
                <ele>195.765625</ele>
                <time>2006-11-26T05:43:17Z</time>
            </trkpt>
            <trkpt lon="101.209381" lat="14.704385">
                <ele>195.765625</ele>
                <time>2006-11-26T05:43:21Z</time>
            </trkpt>
            <trkpt lon="101.208780" lat="14.703956">
                <ele>194.323730</ele>
                <time>2006-11-26T05:43:37Z</time>
            </trkpt>
            <trkpt lon="101.208479" lat="14.703612">
                <ele>194.323730</ele>
                <time>2006-11-26T05:43:46Z</time>
            </trkpt>
            <trkpt lon="101.208136" lat="14.703355">
                <ele>193.362305</ele>
                <time>2006-11-26T05:43:54Z</time>
            </trkpt>
            <trkpt lon="101.207771" lat="14.703033">
                <ele>192.881714</ele>
                <time>2006-11-26T05:44:03Z</time>
            </trkpt>
            <trkpt lon="101.207535" lat="14.702926">
                <ele>192.401123</ele>
                <time>2006-11-26T05:44:08Z</time>
            </trkpt>
            <trkpt lon="101.207321" lat="14.702926">
                <ele>192.401123</ele>
                <time>2006-11-26T05:44:12Z</time>
            </trkpt>
            <trkpt lon="101.207235" lat="14.702883">
                <ele>192.401123</ele>
                <time>2006-11-26T05:44:14Z</time>
            </trkpt>
            <trkpt lon="101.206956" lat="14.702754">
                <ele>191.920288</ele>
                <time>2006-11-26T05:44:20Z</time>
            </trkpt>
            <trkpt lon="101.206806" lat="14.702647">
                <ele>192.401123</ele>
                <time>2006-11-26T05:44:24Z</time>
            </trkpt>
            <trkpt lon="101.206441" lat="14.702346">
                <ele>191.920288</ele>
                <time>2006-11-26T05:44:34Z</time>
            </trkpt>
            <trkpt lon="101.206141" lat="14.701896">
                <ele>192.401123</ele>
                <time>2006-11-26T05:44:46Z</time>
            </trkpt>
            <trkpt lon="101.205733" lat="14.701681">
                <ele>192.881714</ele>
                <time>2006-11-26T05:44:59Z</time>
            </trkpt>
            <trkpt lon="101.205347" lat="14.701574">
                <ele>194.323730</ele>
                <time>2006-11-26T05:45:12Z</time>
            </trkpt>
            <trkpt lon="101.205282" lat="14.701788">
                <ele>195.284912</ele>
                <time>2006-11-26T05:45:22Z</time>
            </trkpt>
            <trkpt lon="101.205261" lat="14.701896">
                <ele>196.246338</ele>
                <time>2006-11-26T05:45:32Z</time>
            </trkpt>
            <trkpt lon="101.205282" lat="14.701874">
                <ele>196.246338</ele>
                <time>2006-11-26T05:45:33Z</time>
            </trkpt>
            <trkpt lon="101.205282" lat="14.701509">
                <ele>194.804321</ele>
                <time>2006-11-26T05:45:45Z</time>
            </trkpt>
            <trkpt lon="101.205282" lat="14.701467">
                <ele>194.323730</ele>
                <time>2006-11-26T05:45:46Z</time>
            </trkpt>
            <trkpt lon="101.205325" lat="14.701295">
                <ele>193.362305</ele>
                <time>2006-11-26T05:45:50Z</time>
            </trkpt>
            <trkpt lon="101.205347" lat="14.701016">
                <ele>192.401123</ele>
                <time>2006-11-26T05:45:55Z</time>
            </trkpt>
            <trkpt lon="101.205389" lat="14.700909">
                <ele>191.439575</ele>
                <time>2006-11-26T05:45:58Z</time>
            </trkpt>
            <trkpt lon="101.205797" lat="14.700801">
                <ele>190.478394</ele>
                <time>2006-11-26T05:46:08Z</time>
            </trkpt>
            <trkpt lon="101.206613" lat="14.700608">
                <ele>188.075073</ele>
                <time>2006-11-26T05:46:25Z</time>
            </trkpt>
            <trkpt lon="101.207106" lat="14.700501">
                <ele>187.113770</ele>
                <time>2006-11-26T05:46:35Z</time>
            </trkpt>
            <trkpt lon="101.207299" lat="14.700458">
                <ele>186.633179</ele>
                <time>2006-11-26T05:46:39Z</time>
            </trkpt>
            <trkpt lon="101.207578" lat="14.700394">
                <ele>186.633179</ele>
                <time>2006-11-26T05:46:44Z</time>
            </trkpt>
            <trkpt lon="101.207836" lat="14.700308">
                <ele>186.152466</ele>
                <time>2006-11-26T05:46:49Z</time>
            </trkpt>
            <trkpt lon="101.208436" lat="14.700201">
                <ele>186.152466</ele>
                <time>2006-11-26T05:47:01Z</time>
            </trkpt>
            <trkpt lon="101.208673" lat="14.700093">
                <ele>187.594360</ele>
                <time>2006-11-26T05:47:13Z</time>
            </trkpt>
            <trkpt lon="101.208673" lat="14.700072">
                <ele>187.594360</ele>
                <time>2006-11-26T05:47:16Z</time>
            </trkpt>
            <trkpt lon="101.208479" lat="14.699707">
                <ele>187.113770</ele>
                <time>2006-11-26T05:47:27Z</time>
            </trkpt>
            <trkpt lon="101.207900" lat="14.698741">
                <ele>187.594360</ele>
                <time>2006-11-26T05:47:47Z</time>
            </trkpt>
            <trkpt lon="101.207170" lat="14.697754">
                <ele>188.075073</ele>
                <time>2006-11-26T05:48:06Z</time>
            </trkpt>
            <trkpt lon="101.205819" lat="14.696317">
                <ele>188.075073</ele>
                <time>2006-11-26T05:48:34Z</time>
            </trkpt>
            <trkpt lon="101.204746" lat="14.695179">
                <ele>188.075073</ele>
                <time>2006-11-26T05:48:57Z</time>
            </trkpt>
            <trkpt lon="101.204231" lat="14.694707">
                <ele>188.075073</ele>
                <time>2006-11-26T05:49:11Z</time>
            </trkpt>
            <trkpt lon="101.204209" lat="14.694707">
                <ele>188.075073</ele>
                <time>2006-11-26T05:49:21Z</time>
            </trkpt>
            <trkpt lon="101.204188" lat="14.694729">
                <ele>187.113770</ele>
                <time>2006-11-26T05:49:35Z</time>
            </trkpt>
            <trkpt lon="101.204166" lat="14.694772">
                <ele>186.633179</ele>
                <time>2006-11-26T05:49:46Z</time>
            </trkpt>
            <trkpt lon="101.204166" lat="14.694815">
                <ele>186.633179</ele>
                <time>2006-11-26T05:49:50Z</time>
            </trkpt>
            <trkpt lon="101.204166" lat="14.694836">
                <ele>187.113770</ele>
                <time>2006-11-26T05:50:04Z</time>
            </trkpt>
            <trkpt lon="101.204166" lat="14.694858">
                <ele>187.113770</ele>
                <time>2006-11-26T05:50:07Z</time>
            </trkpt>
            <trkpt lon="101.203909" lat="14.694922">
                <ele>187.113770</ele>
                <time>2006-11-26T05:50:22Z</time>
            </trkpt>
            <trkpt lon="101.203630" lat="14.695008">
                <ele>186.633179</ele>
                <time>2006-11-26T05:50:37Z</time>
            </trkpt>
            <trkpt lon="101.203330" lat="14.695137">
                <ele>186.152466</ele>
                <time>2006-11-26T05:50:52Z</time>
            </trkpt>
            <trkpt lon="101.203222" lat="14.695308">
                <ele>186.633179</ele>
                <time>2006-11-26T05:51:09Z</time>
            </trkpt>
            <trkpt lon="101.203201" lat="14.695437">
                <ele>186.633179</ele>
                <time>2006-11-26T05:51:22Z</time>
            </trkpt>
            <trkpt lon="101.203115" lat="14.695823">
                <ele>187.594360</ele>
                <time>2006-11-26T05:51:35Z</time>
            </trkpt>
            <trkpt lon="101.202965" lat="14.696918">
                <ele>188.555786</ele>
                <time>2006-11-26T05:51:59Z</time>
            </trkpt>
            <trkpt lon="101.202900" lat="14.698291">
                <ele>189.036377</ele>
                <time>2006-11-26T05:52:28Z</time>
            </trkpt>
            <trkpt lon="101.202750" lat="14.699042">
                <ele>189.516968</ele>
                <time>2006-11-26T05:52:48Z</time>
            </trkpt>
            <trkpt lon="101.202407" lat="14.699471">
                <ele>195.765625</ele>
                <time>2006-11-26T05:53:06Z</time>
            </trkpt>
            <trkpt lon="101.201956" lat="14.699771">
                <ele>194.323730</ele>
                <time>2006-11-26T05:53:26Z</time>
            </trkpt>
            <trkpt lon="101.201463" lat="14.699750">
                <ele>193.843018</ele>
                <time>2006-11-26T05:53:41Z</time>
            </trkpt>
            <trkpt lon="101.200690" lat="14.699707">
                <ele>195.765625</ele>
                <time>2006-11-26T05:54:03Z</time>
            </trkpt>
            <trkpt lon="101.200025" lat="14.699643">
                <ele>194.804321</ele>
                <time>2006-11-26T05:54:21Z</time>
            </trkpt>
            <trkpt lon="101.199853" lat="14.699578">
                <ele>193.843018</ele>
                <time>2006-11-26T05:54:35Z</time>
            </trkpt>
            <trkpt lon="101.199660" lat="14.699535">
                <ele>192.401123</ele>
                <time>2006-11-26T05:54:45Z</time>
            </trkpt>
            <trkpt lon="101.199274" lat="14.699492">
                <ele>189.997681</ele>
                <time>2006-11-26T05:54:56Z</time>
            </trkpt>
            <trkpt lon="101.198652" lat="14.699342">
                <ele>188.075073</ele>
                <time>2006-11-26T05:55:10Z</time>
            </trkpt>
            <trkpt lon="101.197772" lat="14.699321">
                <ele>186.633179</ele>
                <time>2006-11-26T05:55:32Z</time>
            </trkpt>
            <trkpt lon="101.197300" lat="14.699428">
                <ele>186.152466</ele>
                <time>2006-11-26T05:55:48Z</time>
            </trkpt>
            <trkpt lon="101.197300" lat="14.699428">
                <ele>185.671753</ele>
                <time>2006-11-26T05:55:52Z</time>
            </trkpt>
            <trkpt lon="101.197193" lat="14.699600">
                <ele>186.152466</ele>
                <time>2006-11-26T05:56:07Z</time>
            </trkpt>
            <trkpt lon="101.197042" lat="14.699814">
                <ele>184.229858</ele>
                <time>2006-11-26T05:56:14Z</time>
            </trkpt>
            <trkpt lon="101.196978" lat="14.699986">
                <ele>185.671753</ele>
                <time>2006-11-26T05:56:20Z</time>
            </trkpt>
            <trkpt lon="101.196485" lat="14.700587">
                <ele>189.516968</ele>
                <time>2006-11-26T05:56:44Z</time>
            </trkpt>
            <trkpt lon="101.196334" lat="14.700758">
                <ele>189.516968</ele>
                <time>2006-11-26T05:56:57Z</time>
            </trkpt>
            <trkpt lon="101.196313" lat="14.700887">
                <ele>189.516968</ele>
                <time>2006-11-26T05:57:11Z</time>
            </trkpt>
            <trkpt lon="101.196313" lat="14.700909">
                <ele>189.036377</ele>
                <time>2006-11-26T05:57:16Z</time>
            </trkpt>
            <trkpt lon="101.196291" lat="14.700930">
                <ele>188.555786</ele>
                <time>2006-11-26T05:57:19Z</time>
            </trkpt>
            <trkpt lon="101.196270" lat="14.701080">
                <ele>187.113770</ele>
                <time>2006-11-26T05:57:33Z</time>
            </trkpt>
            <trkpt lon="101.196249" lat="14.701231">
                <ele>185.671753</ele>
                <time>2006-11-26T05:57:45Z</time>
            </trkpt>
            <trkpt lon="101.196227" lat="14.701316">
                <ele>185.191162</ele>
                <time>2006-11-26T05:57:52Z</time>
            </trkpt>
            <trkpt lon="101.196227" lat="14.701488">
                <ele>184.710571</ele>
                <time>2006-11-26T05:58:06Z</time>
            </trkpt>
            <trkpt lon="101.196206" lat="14.701660">
                <ele>183.749023</ele>
                <time>2006-11-26T05:58:21Z</time>
            </trkpt>
            <trkpt lon="101.196184" lat="14.701896">
                <ele>184.229858</ele>
                <time>2006-11-26T05:58:38Z</time>
            </trkpt>
            <trkpt lon="101.196184" lat="14.701960">
                <ele>183.749023</ele>
                <time>2006-11-26T05:59:10Z</time>
            </trkpt>
            <trkpt lon="101.196184" lat="14.702110">
                <ele>183.268433</ele>
                <time>2006-11-26T05:59:27Z</time>
            </trkpt>
            <trkpt lon="101.196291" lat="14.702346">
                <ele>185.671753</ele>
                <time>2006-11-26T05:59:44Z</time>
            </trkpt>
            <trkpt lon="101.196270" lat="14.702668">
                <ele>187.594360</ele>
                <time>2006-11-26T06:00:04Z</time>
            </trkpt>
            <trkpt lon="101.196249" lat="14.702733">
                <ele>189.516968</ele>
                <time>2006-11-26T06:00:20Z</time>
            </trkpt>
            <trkpt lon="101.196291" lat="14.703097">
                <ele>188.075073</ele>
                <time>2006-11-26T06:00:42Z</time>
            </trkpt>
            <trkpt lon="101.196291" lat="14.703140">
                <ele>187.594360</ele>
                <time>2006-11-26T06:00:46Z</time>
            </trkpt>
            <trkpt lon="101.196184" lat="14.703569">
                <ele>188.075073</ele>
                <time>2006-11-26T06:01:05Z</time>
            </trkpt>
            <trkpt lon="101.196120" lat="14.704471">
                <ele>191.439575</ele>
                <time>2006-11-26T06:01:36Z</time>
            </trkpt>
            <trkpt lon="101.195884" lat="14.704943">
                <ele>190.958984</ele>
                <time>2006-11-26T06:01:54Z</time>
            </trkpt>
            <trkpt lon="101.195390" lat="14.705200">
                <ele>187.594360</ele>
                <time>2006-11-26T06:02:13Z</time>
            </trkpt>
            <trkpt lon="101.195047" lat="14.705801">
                <ele>189.516968</ele>
                <time>2006-11-26T06:02:32Z</time>
            </trkpt>
            <trkpt lon="101.194897" lat="14.706359">
                <ele>187.594360</ele>
                <time>2006-11-26T06:02:48Z</time>
            </trkpt>
            <trkpt lon="101.194940" lat="14.706509">
                <ele>187.594360</ele>
                <time>2006-11-26T06:03:01Z</time>
            </trkpt>
            <trkpt lon="101.194983" lat="14.706595">
                <ele>187.113770</ele>
                <time>2006-11-26T06:03:15Z</time>
            </trkpt>
            <trkpt lon="101.195090" lat="14.706981">
                <ele>188.555786</ele>
                <time>2006-11-26T06:03:35Z</time>
            </trkpt>
            <trkpt lon="101.195176" lat="14.707303">
                <ele>189.516968</ele>
                <time>2006-11-26T06:03:51Z</time>
            </trkpt>
            <trkpt lon="101.195347" lat="14.707904">
                <ele>190.478394</ele>
                <time>2006-11-26T06:04:11Z</time>
            </trkpt>
            <trkpt lon="101.195562" lat="14.708526">
                <ele>190.478394</ele>
                <time>2006-11-26T06:04:30Z</time>
            </trkpt>
            <trkpt lon="101.195819" lat="14.709320">
                <ele>189.997681</ele>
                <time>2006-11-26T06:04:51Z</time>
            </trkpt>
            <trkpt lon="101.195905" lat="14.709685">
                <ele>190.958984</ele>
                <time>2006-11-26T06:05:02Z</time>
            </trkpt>
            <trkpt lon="101.195798" lat="14.709728">
                <ele>190.958984</ele>
                <time>2006-11-26T06:05:07Z</time>
            </trkpt>
            <trkpt lon="101.195154" lat="14.709427">
                <ele>191.920288</ele>
                <time>2006-11-26T06:05:25Z</time>
            </trkpt>
            <trkpt lon="101.194382" lat="14.709213">
                <ele>189.036377</ele>
                <time>2006-11-26T06:05:42Z</time>
            </trkpt>
            <trkpt lon="101.193502" lat="14.708977">
                <ele>188.555786</ele>
                <time>2006-11-26T06:06:00Z</time>
            </trkpt>
            <trkpt lon="101.192729" lat="14.708891">
                <ele>188.075073</ele>
                <time>2006-11-26T06:06:13Z</time>
            </trkpt>
            <trkpt lon="101.191893" lat="14.708848">
                <ele>188.555786</ele>
                <time>2006-11-26T06:06:28Z</time>
            </trkpt>
            <trkpt lon="101.191700" lat="14.708977">
                <ele>188.555786</ele>
                <time>2006-11-26T06:06:33Z</time>
            </trkpt>
            <trkpt lon="101.191378" lat="14.709663">
                <ele>189.997681</ele>
                <time>2006-11-26T06:06:48Z</time>
            </trkpt>
            <trkpt lon="101.191227" lat="14.709899">
                <ele>189.036377</ele>
                <time>2006-11-26T06:06:54Z</time>
            </trkpt>
            <trkpt lon="101.190970" lat="14.710093">
                <ele>188.555786</ele>
                <time>2006-11-26T06:07:01Z</time>
            </trkpt>
            <trkpt lon="101.190841" lat="14.709964">
                <ele>188.555786</ele>
                <time>2006-11-26T06:07:07Z</time>
            </trkpt>
            <trkpt lon="101.190841" lat="14.709835">
                <ele>188.555786</ele>
                <time>2006-11-26T06:07:10Z</time>
            </trkpt>
            <trkpt lon="101.191227" lat="14.709342">
                <ele>187.594360</ele>
                <time>2006-11-26T06:07:22Z</time>
            </trkpt>
            <trkpt lon="101.191356" lat="14.709277">
                <ele>188.075073</ele>
                <time>2006-11-26T06:07:25Z</time>
            </trkpt>
            <trkpt lon="101.191442" lat="14.709256">
                <ele>188.075073</ele>
                <time>2006-11-26T06:07:27Z</time>
            </trkpt>
            <trkpt lon="101.191850" lat="14.708741">
                <ele>188.555786</ele>
                <time>2006-11-26T06:07:42Z</time>
            </trkpt>
            <trkpt lon="101.191957" lat="14.708076">
                <ele>186.152466</ele>
                <time>2006-11-26T06:07:59Z</time>
            </trkpt>
            <trkpt lon="101.191957" lat="14.707732">
                <ele>186.152466</ele>
                <time>2006-11-26T06:08:08Z</time>
            </trkpt>
            <trkpt lon="101.192064" lat="14.707839">
                <ele>186.633179</ele>
                <time>2006-11-26T06:08:19Z</time>
            </trkpt>
            <trkpt lon="101.192086" lat="14.707904">
                <ele>187.113770</ele>
                <time>2006-11-26T06:08:32Z</time>
            </trkpt>
            <trkpt lon="101.192107" lat="14.707925">
                <ele>187.594360</ele>
                <time>2006-11-26T06:08:45Z</time>
            </trkpt>
        </trkseg>
    </trk>
</gpx>